createdAt,value
2023-01-09T00:00:57.819Z,99878.34
2023-01-09T00:03:25.275Z,99881.59
2023-01-09T00:05:52.496Z,99872.19
2023-01-09T00:08:19.722Z,99884.97
2023-01-09T00:10:49.339Z,99878.97
2023-01-09T00:13:18.123Z,99882.53
2023-01-09T00:15:45.544Z,99880.69
2023-01-09T00:18:13.083Z,99880.34
2023-01-09T00:20:40.539Z,99875.19
2023-01-09T00:23:07.748Z,99879.78
2023-01-09T00:25:35.719Z,99873.53
2023-01-09T00:28:02.821Z,99873.38
2023-01-09T00:30:30.007Z,99872.78
2023-01-09T00:32:57.469Z,99870.19
2023-01-09T00:35:26.668Z,99867.75
2023-01-09T00:37:53.920Z,99874.25
2023-01-09T00:40:21.730Z,99870.59
2023-01-09T00:42:52.876Z,99858.19
2023-01-09T00:45:28.600Z,99860.59
2023-01-09T00:48:02.049Z,99865.63
2023-01-09T00:50:32.044Z,99858.38
2023-01-09T00:53:02.561Z,99860.12
2023-01-09T00:55:29.649Z,99864.37
2023-01-09T00:57:57.029Z,99849.41
2023-01-09T01:00:24.450Z,99847.28
2023-01-09T01:02:51.621Z,99848.25
2023-01-09T01:05:36.999Z,99851.44
2023-01-09T01:08:11.184Z,99848.94
2023-01-09T01:10:38.445Z,99843.41
2023-01-09T01:13:05.834Z,99848.44
2023-01-09T01:15:32.914Z,99843.09
2023-01-09T01:18:00.066Z,99845.09
2023-01-09T01:20:27.401Z,99843.75
2023-01-09T01:22:54.476Z,99838.09
2023-01-09T01:25:22.036Z,99827.72
2023-01-09T01:27:50.008Z,99835.50
2023-01-09T01:30:18.583Z,99835.50
2023-01-09T01:32:45.816Z,99821.56
2023-01-09T01:35:13.316Z,99825.63
2023-01-09T01:37:40.759Z,99824.16
2023-01-09T01:40:11.609Z,99814.12
2023-01-09T01:42:46.651Z,99815.91
2023-01-09T01:45:23.110Z,99811.88
2023-01-09T01:47:57.359Z,99805.97
2023-01-09T01:50:26.317Z,99797.69
2023-01-09T01:53:02.985Z,99804.78
2023-01-09T01:55:30.394Z,99795.59
2023-01-09T01:58:00.439Z,99792.19
2023-01-09T02:00:31.959Z,99786.34
2023-01-09T02:02:59.916Z,99789.69
2023-01-09T02:05:27.487Z,99782.81
2023-01-09T02:07:54.879Z,99774.91
2023-01-09T02:10:23.625Z,99770.13
2023-01-09T02:12:51.298Z,99768.62
2023-01-09T02:15:18.865Z,99771.78
2023-01-09T02:18:07.275Z,99759.78
2023-01-09T02:20:46.192Z,99756.94
2023-01-09T02:23:32.077Z,99760.09
2023-01-09T02:26:36.417Z,99745.78
2023-01-09T02:29:12.468Z,99748.38
2023-01-09T02:31:45.617Z,99748.66
2023-01-09T02:34:22.382Z,99751.69
2023-01-09T02:37:01.960Z,99741.37
2023-01-09T02:39:52.329Z,99736.31
2023-01-09T02:42:23.820Z,99733.25
2023-01-09T02:44:51.292Z,99722.41
2023-01-09T02:47:18.373Z,99733.91
2023-01-09T02:49:48.376Z,99723.78
2023-01-09T02:52:30.466Z,99720.56
2023-01-09T02:55:00.737Z,99717.41
2023-01-09T02:57:36.899Z,99708.69
2023-01-09T03:00:09.541Z,99709.53
2023-01-09T03:02:57.718Z,99709.63
2023-01-09T03:05:32.832Z,99701.88
2023-01-09T03:08:03.405Z,99705.56
2023-01-09T03:10:42.977Z,99701.66
2023-01-09T03:13:12.196Z,99699.00
2023-01-09T03:15:41.715Z,99695.16
2023-01-09T03:18:10.467Z,99689.25
2023-01-09T03:20:38.461Z,99692.12
2023-01-09T03:23:07.116Z,99696.75
2023-01-09T03:25:34.550Z,99688.25
2023-01-09T03:28:04.537Z,99689.47
2023-01-09T03:30:33.577Z,99686.59
2023-01-09T03:33:01.186Z,99686.59
2023-01-09T03:35:28.359Z,99692.62
2023-01-09T03:37:55.803Z,99680.97
2023-01-09T03:40:22.896Z,99675.59
2023-01-09T03:42:50.053Z,99682.44
2023-01-09T03:45:17.505Z,99676.97
2023-01-09T03:47:44.659Z,99672.53
2023-01-09T03:50:11.746Z,99675.13
2023-01-09T03:52:39.146Z,99678.94
2023-01-09T03:55:06.602Z,99679.75
2023-01-09T03:57:33.720Z,99683.56
2023-01-09T04:00:01.144Z,99676.16
2023-01-09T04:02:28.348Z,99677.19
2023-01-09T04:04:55.780Z,99677.34
2023-01-09T04:07:22.917Z,99679.94
2023-01-09T04:09:50.075Z,99680.78
2023-01-09T04:12:17.555Z,99673.37
2023-01-09T04:14:44.692Z,99662.06
2023-01-09T04:17:11.864Z,99665.91
2023-01-09T04:19:39.345Z,99665.44
2023-01-09T04:22:06.516Z,99673.94
2023-01-09T04:24:33.654Z,99676.38
2023-01-09T04:27:01.086Z,99669.84
2023-01-09T04:29:28.328Z,99669.00
2023-01-09T04:31:55.505Z,99674.66
2023-01-09T04:34:25.585Z,99672.03
2023-01-09T04:36:53.411Z,99680.37
2023-01-09T04:39:21.148Z,99684.66
2023-01-09T04:41:51.654Z,99681.13
2023-01-09T04:44:25.720Z,99675.69
2023-01-09T04:46:53.307Z,99681.69
2023-01-09T04:49:21.205Z,99674.75
2023-01-09T04:51:48.459Z,99683.56
2023-01-09T04:54:16.151Z,99670.16
2023-01-09T04:56:43.284Z,99678.66
2023-01-09T04:59:10.443Z,99666.63
2023-01-09T05:01:38.084Z,99668.38
2023-01-09T05:04:05.600Z,99676.22
2023-01-09T05:06:34.147Z,99674.50
2023-01-09T05:09:01.661Z,99673.94
2023-01-09T05:11:28.910Z,99679.28
2023-01-09T05:13:56.047Z,99660.59
2023-01-09T05:16:23.580Z,99657.13
2023-01-09T05:18:56.415Z,99662.38
2023-01-09T05:21:24.624Z,99656.19
2023-01-09T05:23:52.172Z,99642.53
2023-01-09T05:26:23.959Z,99646.22
2023-01-09T05:28:52.224Z,99644.38
2023-01-09T05:31:20.147Z,99644.94
2023-01-09T05:33:47.832Z,99639.78
2023-01-09T05:36:15.505Z,99643.22
2023-01-09T05:38:42.712Z,99642.16
2023-01-09T05:41:10.232Z,99650.16
2023-01-09T05:43:37.639Z,99659.50
2023-01-09T05:46:04.865Z,99672.97
2023-01-09T05:48:31.952Z,99673.56
2023-01-09T05:50:59.340Z,99674.19
2023-01-09T05:53:26.725Z,99664.25
2023-01-09T05:55:53.784Z,99666.16
2023-01-09T05:58:21.164Z,99670.47
2023-01-09T06:00:49.515Z,99665.56
2023-01-09T06:03:16.875Z,99669.84
2023-01-09T06:05:44.107Z,99667.28
2023-01-09T06:08:11.157Z,99663.47
2023-01-09T06:10:38.515Z,99683.03
2023-01-09T06:13:05.609Z,99686.09
2023-01-09T06:15:32.669Z,99686.97
2023-01-09T06:18:00.131Z,99679.13
2023-01-09T06:20:27.238Z,99680.53
2023-01-09T06:22:54.360Z,99683.75
2023-01-09T06:25:22.084Z,99675.88
2023-01-09T06:27:49.893Z,99687.94
2023-01-09T06:30:17.380Z,99688.87
2023-01-09T06:32:44.943Z,99692.94
2023-01-09T06:35:12.096Z,99694.34
2023-01-09T06:37:39.219Z,99691.47
2023-01-09T06:40:07.561Z,99688.13
2023-01-09T06:42:34.714Z,99686.53
2023-01-09T06:45:01.845Z,99683.59
2023-01-09T06:47:29.297Z,99680.91
2023-01-09T06:49:58.157Z,99678.97
2023-01-09T06:52:25.342Z,99677.53
2023-01-09T06:54:52.766Z,99672.72
2023-01-09T06:57:19.915Z,99677.09
2023-01-09T06:59:47.142Z,99674.88
2023-01-09T07:02:18.269Z,99666.84
2023-01-09T07:04:45.514Z,99671.88
2023-01-09T07:07:13.197Z,99669.78
2023-01-09T07:09:40.626Z,99673.87
2023-01-09T07:12:07.813Z,99676.22
2023-01-09T07:14:35.049Z,99668.63
2023-01-09T07:17:03.510Z,99663.19
2023-01-09T07:19:30.709Z,99664.16
2023-01-09T07:22:00.515Z,99673.28
2023-01-09T07:24:27.959Z,99668.59
2023-01-09T07:26:55.099Z,99664.00
2023-01-09T07:29:22.333Z,99664.34
2023-01-09T07:31:49.784Z,99656.81
2023-01-09T07:34:16.913Z,99660.22
2023-01-09T07:36:46.624Z,99644.66
2023-01-09T07:39:14.202Z,99654.22
2023-01-09T07:41:41.340Z,99648.53
2023-01-09T07:44:11.065Z,99646.34
2023-01-09T07:46:38.926Z,99635.44
2023-01-09T07:49:06.510Z,99629.25
2023-01-09T07:51:33.738Z,99632.91
2023-01-09T07:54:01.333Z,99646.22
2023-01-09T07:56:28.494Z,99647.06
2023-01-09T07:58:55.641Z,99634.28
2023-01-09T08:01:23.238Z,99635.66
2023-01-09T08:03:50.779Z,99628.53
2023-01-09T08:06:17.979Z,99620.53
2023-01-09T08:08:45.224Z,99623.97
2023-01-09T08:11:12.712Z,99626.87
2023-01-09T08:13:39.890Z,99629.97
2023-01-09T08:16:07.560Z,99655.12
2023-01-09T08:18:35.110Z,99662.72
2023-01-09T08:21:02.264Z,99667.19
2023-01-09T08:23:29.472Z,99663.19
2023-01-09T08:25:56.967Z,99666.06
2023-01-09T08:28:24.125Z,99655.63
2023-01-09T08:30:51.598Z,99647.25
2023-01-09T08:33:19.102Z,99655.38
2023-01-09T08:35:46.408Z,99651.81
2023-01-09T08:38:13.641Z,99657.22
2023-01-09T08:40:41.103Z,99664.59
2023-01-09T08:43:28.101Z,99676.13
2023-01-09T08:46:21.339Z,99664.19
2023-01-09T08:48:48.528Z,99663.78
2023-01-09T08:51:15.944Z,99646.47
2023-01-09T08:53:43.016Z,99652.91
2023-01-09T08:56:10.331Z,99646.28
2023-01-09T08:58:37.781Z,99633.91
2023-01-09T09:01:06.632Z,99635.91
2023-01-09T09:03:33.702Z,99620.44
2023-01-09T09:06:01.196Z,99624.47
2023-01-09T09:08:28.273Z,99628.44
2023-01-09T09:10:57.294Z,99626.56
2023-01-09T09:13:24.702Z,99627.47
2023-01-09T09:15:51.844Z,99621.66
2023-01-09T09:18:19.085Z,99626.75
2023-01-09T09:20:46.707Z,99625.78
2023-01-09T09:23:13.829Z,99629.84
2023-01-09T09:25:41.030Z,99622.69
2023-01-09T09:28:10.575Z,99614.28
2023-01-09T09:30:38.765Z,99619.53
2023-01-09T09:33:06.018Z,99626.38
2023-01-09T09:35:34.180Z,99620.47
2023-01-09T09:38:04.969Z,99615.94
2023-01-09T09:40:38.724Z,99609.03
2023-01-09T09:43:58.917Z,99613.84
2023-01-09T09:46:31.336Z,99602.00
2023-01-09T09:49:06.482Z,99605.59
2023-01-09T09:52:03.513Z,99602.78
2023-01-09T09:54:50.979Z,99600.66
2023-01-09T09:57:22.139Z,99603.16
2023-01-09T09:59:51.490Z,99602.53
2023-01-09T10:02:30.502Z,99616.62
2023-01-09T10:05:06.185Z,99607.88
2023-01-09T10:07:41.857Z,99622.97
2023-01-09T10:10:33.664Z,99608.25
2023-01-09T10:13:20.945Z,99605.91
2023-01-09T10:16:03.540Z,99589.22
2023-01-09T10:18:42.788Z,99582.37
2023-01-09T10:21:24.448Z,99575.84
2023-01-09T10:23:58.276Z,99570.72
2023-01-09T10:26:43.524Z,99564.22
2023-01-09T10:29:26.010Z,99566.75
2023-01-09T10:32:12.171Z,99568.44
2023-01-09T10:35:02.417Z,99559.03
2023-01-09T10:37:33.774Z,99551.09
2023-01-09T10:40:19.814Z,99557.28
2023-01-09T10:42:50.882Z,99562.94
2023-01-09T10:45:25.606Z,99560.91
2023-01-09T10:47:58.211Z,99556.28
2023-01-09T10:50:28.695Z,99541.25
2023-01-09T10:52:56.567Z,99541.06
2023-01-09T10:55:40.054Z,99530.44
2023-01-09T10:58:16.877Z,99524.25
2023-01-09T11:00:44.712Z,99521.25
2023-01-09T11:03:23.301Z,99520.31
2023-01-09T11:05:52.947Z,99508.34
2023-01-09T11:08:40.197Z,99510.34
2023-01-09T11:11:07.859Z,99514.06
2023-01-09T11:13:43.566Z,99511.41
2023-01-09T11:16:10.769Z,99517.84
2023-01-09T11:18:40.423Z,99508.06
2023-01-09T11:21:31.478Z,99499.56
2023-01-09T11:24:27.851Z,99499.88
2023-01-09T11:27:24.698Z,99508.91
2023-01-09T11:30:12.875Z,99512.63
2023-01-09T11:32:40.638Z,99510.78
2023-01-09T11:35:17.416Z,99489.81
2023-01-09T11:37:44.981Z,99486.06
2023-01-09T11:40:18.554Z,99476.50
2023-01-09T11:43:14.471Z,99473.81
2023-01-09T11:45:53.233Z,99475.09
2023-01-09T11:48:32.282Z,99477.34
2023-01-09T11:51:01.210Z,99472.16
2023-01-09T11:53:28.619Z,99474.25
2023-01-09T11:56:03.562Z,99472.97
2023-01-09T11:58:34.880Z,99453.06
2023-01-09T12:01:17.355Z,99449.94
2023-01-09T12:04:00.092Z,99455.34
2023-01-09T12:06:48.915Z,99459.72
2023-01-09T12:09:24.096Z,99456.19
2023-01-09T12:12:31.727Z,99452.25
2023-01-09T12:14:59.263Z,99441.44
2023-01-09T12:17:52.806Z,99451.47
2023-01-09T12:20:43.688Z,99447.75
2023-01-09T12:23:25.915Z,99457.19
2023-01-09T12:26:25.419Z,99452.00
2023-01-09T12:29:07.660Z,99448.50
2023-01-09T12:31:48.272Z,99438.25
2023-01-09T12:34:41.057Z,99441.25
2023-01-09T12:37:33.183Z,99443.56
2023-01-09T12:40:03.289Z,99448.41
2023-01-09T12:43:01.407Z,99445.66
2023-01-09T12:45:41.384Z,99429.72
2023-01-09T12:48:21.547Z,99431.28
2023-01-09T12:50:48.636Z,99419.44
2023-01-09T12:53:35.327Z,99404.28
2023-01-09T12:56:15.827Z,99392.50
2023-01-09T12:58:51.094Z,99384.56
2023-01-09T13:01:25.358Z,99373.50
2023-01-09T13:04:01.977Z,99387.69
2023-01-09T13:06:29.908Z,99375.22
2023-01-09T13:09:32.847Z,99374.66
2023-01-09T13:12:15.724Z,99379.16
2023-01-09T13:14:52.152Z,99372.19
2023-01-09T13:17:30.392Z,99382.28
2023-01-09T13:19:57.758Z,99389.13
2023-01-09T13:22:27.585Z,99398.37
2023-01-09T13:25:25.600Z,99405.94
2023-01-09T13:27:58.320Z,99415.34
2023-01-09T13:31:06.039Z,99409.44
2023-01-09T13:33:36.051Z,99399.59
2023-01-09T13:36:03.794Z,99407.91
2023-01-09T13:38:32.737Z,99405.22
2023-01-09T13:41:26.970Z,99407.37
2023-01-09T13:43:56.326Z,99414.25
2023-01-09T13:46:33.375Z,99423.13
2023-01-09T13:49:01.224Z,99420.31
2023-01-09T13:51:57.947Z,99413.87
2023-01-09T13:54:55.810Z,99401.91
2023-01-09T13:57:32.481Z,99408.06
2023-01-09T14:00:19.464Z,99421.31
2023-01-09T14:02:47.104Z,99420.06
2023-01-09T14:05:15.197Z,99422.78
2023-01-09T14:07:44.543Z,99436.97
2023-01-09T14:10:26.721Z,99433.75
2023-01-09T14:12:55.181Z,99422.97
2023-01-09T14:15:29.330Z,99427.88
2023-01-09T14:18:04.641Z,99431.94
2023-01-09T14:20:39.699Z,99418.84
2023-01-09T14:23:31.447Z,99426.72
2023-01-09T14:25:55.853Z,99416.34
2023-01-09T14:28:33.473Z,99420.47
2023-01-09T14:31:00.962Z,99415.09
2023-01-09T14:33:32.716Z,99406.19
2023-01-09T14:35:59.780Z,99395.81
2023-01-09T14:38:40.874Z,99403.06
2023-01-09T14:41:47.309Z,99401.41
2023-01-09T14:44:31.550Z,99394.88
2023-01-09T14:47:15.958Z,99397.97
2023-01-09T14:49:59.899Z,99394.94
2023-01-09T14:52:30.444Z,99392.88
2023-01-09T14:55:00.785Z,99393.38
2023-01-09T14:57:31.484Z,99389.91
2023-01-09T15:00:01.133Z,99401.81
2023-01-09T15:02:31.876Z,99394.69
2023-01-09T15:05:06.619Z,99388.75
2023-01-09T15:07:40.549Z,99393.53
2023-01-09T15:10:08.325Z,99391.00
2023-01-09T15:12:35.887Z,99408.66
2023-01-09T15:15:04.646Z,99412.69
2023-01-09T15:17:34.447Z,99413.72
2023-01-09T15:20:04.732Z,99413.81
2023-01-09T15:22:37.061Z,99414.50
2023-01-09T15:25:45.104Z,99417.78
2023-01-09T15:28:32.464Z,99420.88
2023-01-09T15:31:06.469Z,99416.25
2023-01-09T15:33:33.973Z,99412.31
2023-01-09T15:36:03.333Z,99410.25
2023-01-09T15:38:32.182Z,99410.53
2023-01-09T15:41:01.872Z,99405.22
2023-01-09T15:43:30.133Z,99392.34
2023-01-09T15:45:58.156Z,99392.81
2023-01-09T15:48:32.462Z,99386.81
2023-01-09T15:51:03.602Z,99382.31
2023-01-09T15:53:31.213Z,99375.03
2023-01-09T15:56:20.605Z,99378.03
2023-01-09T15:58:49.380Z,99368.44
2023-01-09T16:01:38.595Z,99377.88
2023-01-09T16:04:18.406Z,99376.72
2023-01-09T16:06:49.142Z,99373.16
2023-01-09T16:09:21.912Z,99365.47
2023-01-09T16:11:52.770Z,99363.78
2023-01-09T16:14:27.476Z,99358.88
2023-01-09T16:16:59.552Z,99361.78
2023-01-09T16:19:32.567Z,99370.44
2023-01-09T16:22:01.817Z,99368.72
2023-01-09T16:24:41.092Z,99364.38
2023-01-09T16:27:29.982Z,99359.22
2023-01-09T16:30:06.017Z,99355.97
2023-01-09T16:32:35.283Z,99357.12
2023-01-09T16:35:14.755Z,99361.50
2023-01-09T16:37:41.827Z,99358.47
2023-01-09T16:40:15.808Z,99365.19
2023-01-09T16:43:03.471Z,99357.44
2023-01-09T16:45:39.185Z,99359.09
2023-01-09T16:48:24.852Z,99357.31
2023-01-09T16:50:52.388Z,99348.00
2023-01-09T16:53:24.189Z,99352.50
2023-01-09T16:55:53.301Z,99348.69
2023-01-09T16:58:32.156Z,99349.91
2023-01-09T17:01:01.407Z,99354.88
2023-01-09T17:03:28.520Z,99352.91
2023-01-09T17:05:56.761Z,99354.91
2023-01-09T17:08:37.127Z,99350.94
2023-01-09T17:11:04.320Z,99347.75
2023-01-09T17:13:31.693Z,99350.63
2023-01-09T17:15:59.235Z,99343.56
2023-01-09T17:18:29.602Z,99340.47
2023-01-09T17:20:58.791Z,99338.59
2023-01-09T17:23:25.933Z,99329.94
2023-01-09T17:26:18.657Z,99323.28
2023-01-09T17:28:50.733Z,99326.25
2023-01-09T17:31:18.068Z,99320.75
2023-01-09T17:33:45.515Z,99328.00
2023-01-09T17:36:26.444Z,99329.13
2023-01-09T17:38:55.193Z,99328.25
2023-01-09T17:41:24.035Z,99333.38
2023-01-09T17:43:51.980Z,99338.16
2023-01-09T17:46:33.272Z,99325.66
2023-01-09T17:49:01.262Z,99327.34
2023-01-09T17:51:29.418Z,99322.25
2023-01-09T17:53:57.109Z,99313.41
2023-01-09T17:56:26.432Z,99309.69
2023-01-09T17:58:53.965Z,99317.25
2023-01-09T18:01:21.514Z,99311.78
2023-01-09T18:03:50.459Z,99304.97
2023-01-09T18:06:19.257Z,99307.72
2023-01-09T18:08:46.831Z,99310.59
2023-01-09T18:11:19.534Z,99310.66
2023-01-09T18:13:48.014Z,99300.06
2023-01-09T18:16:18.034Z,99305.16
2023-01-09T18:18:45.257Z,99304.34
2023-01-09T18:21:16.181Z,99300.56
2023-01-09T18:23:43.736Z,99299.75
2023-01-09T18:26:18.474Z,99295.66
2023-01-09T18:28:47.626Z,99290.44
2023-01-09T18:31:17.321Z,99292.50
2023-01-09T18:33:51.407Z,99300.16
2023-01-09T18:36:20.036Z,99292.59
2023-01-09T18:38:53.847Z,99291.87
2023-01-09T18:41:21.873Z,99293.66
2023-01-09T18:43:50.212Z,99284.66
2023-01-09T18:46:20.701Z,99282.28
2023-01-09T18:48:55.613Z,99289.44
2023-01-09T18:51:24.325Z,99283.22
2023-01-09T18:53:52.009Z,99280.00
2023-01-09T18:56:20.012Z,99275.13
2023-01-09T18:58:48.327Z,99267.38
2023-01-09T19:01:16.525Z,99258.97
2023-01-09T19:03:43.851Z,99261.44
2023-01-09T19:06:11.060Z,99258.03
2023-01-09T19:08:38.602Z,99260.63
2023-01-09T19:11:05.920Z,99268.69
2023-01-09T19:13:37.393Z,99260.00
2023-01-09T19:16:05.951Z,99263.19
2023-01-09T19:18:35.376Z,99258.12
2023-01-09T19:21:02.696Z,99257.72
2023-01-09T19:23:30.117Z,99259.50
2023-01-09T19:25:57.843Z,99250.59
2023-01-09T19:28:25.479Z,99247.06
2023-01-09T19:30:56.903Z,99254.13
2023-01-09T19:33:25.241Z,99248.00
2023-01-09T19:35:53.245Z,99247.59
2023-01-09T19:38:23.295Z,99250.06
2023-01-09T19:40:50.529Z,99246.34
2023-01-09T19:43:26.783Z,99251.59
2023-01-09T19:45:56.781Z,99243.94
2023-01-09T19:48:27.010Z,99243.53
2023-01-09T19:51:05.192Z,99244.88
2023-01-09T19:53:33.987Z,99235.16
2023-01-09T19:56:12.895Z,99243.12
2023-01-09T19:58:41.793Z,99233.69
2023-01-09T20:01:17.757Z,99227.91
2023-01-09T20:03:48.323Z,99225.69
2023-01-09T20:06:19.309Z,99219.00
2023-01-09T20:08:49.103Z,99214.72
2023-01-09T20:11:16.570Z,99214.16
2023-01-09T20:13:44.909Z,99206.19
2023-01-09T20:16:20.639Z,99199.38
2023-01-09T20:18:48.306Z,99199.31
2023-01-09T20:23:54.372Z,99203.78
2023-01-09T20:26:22.822Z,99194.31
2023-01-09T20:28:50.067Z,99197.22
2023-01-09T20:31:19.186Z,99192.03
2023-01-09T20:33:47.837Z,99193.37
2023-01-09T20:36:15.198Z,99194.91
2023-01-09T20:38:43.197Z,99190.97
2023-01-09T20:41:22.812Z,99179.13
2023-01-09T20:43:55.742Z,99181.28
2023-01-09T20:46:25.575Z,99184.72
2023-01-09T20:48:55.776Z,99186.03
2023-01-09T20:51:23.106Z,99180.28
2023-01-09T20:53:58.399Z,99174.81
2023-01-09T20:56:27.466Z,99177.56
2023-01-09T20:58:55.396Z,99183.97
2023-01-09T21:01:23.033Z,99167.28
2023-01-09T21:03:51.272Z,99180.03
2023-01-09T21:06:20.953Z,99173.91
2023-01-09T21:08:50.993Z,99171.00
2023-01-09T21:11:19.485Z,99170.06
2023-01-09T21:13:46.834Z,99182.28
2023-01-09T21:16:16.680Z,99186.09
2023-01-09T21:18:44.614Z,99177.56
2023-01-09T21:21:14.390Z,99183.88
2023-01-09T21:23:53.862Z,99181.31
2023-01-09T21:26:24.760Z,99180.00
2023-01-09T21:28:54.944Z,99176.72
2023-01-09T21:31:25.542Z,99179.63
2023-01-09T21:33:54.506Z,99177.03
2023-01-09T21:36:22.026Z,99182.19
2023-01-09T21:38:52.061Z,99180.38
2023-01-09T21:41:41.106Z,99180.00
2023-01-09T21:44:30.358Z,99178.66
2023-01-09T21:46:59.847Z,99179.78
2023-01-09T21:49:30.969Z,99181.03
2023-01-09T21:51:58.644Z,99183.63
2023-01-09T21:54:26.100Z,99179.13
2023-01-09T21:56:53.461Z,99184.78
2023-01-09T21:59:20.718Z,99186.44
2023-01-09T22:01:50.933Z,99185.28
2023-01-09T22:04:21.115Z,99183.13
2023-01-09T22:06:48.449Z,99178.72
2023-01-09T22:09:16.104Z,99193.63
2023-01-09T22:11:43.913Z,99186.69
2023-01-09T22:14:16.116Z,99195.09
2023-01-09T22:16:44.986Z,99193.66
2023-01-09T22:19:13.260Z,99192.37
2023-01-09T22:21:45.777Z,99193.19
2023-01-09T22:24:14.975Z,99187.97
2023-01-09T22:26:42.217Z,99185.69
2023-01-09T22:29:09.343Z,99188.09
2023-01-09T22:31:39.829Z,99195.50
2023-01-09T22:34:07.064Z,99194.66
2023-01-09T22:36:34.249Z,99190.63
2023-01-09T22:39:01.791Z,99193.53
2023-01-09T22:41:32.363Z,99191.63
2023-01-09T22:43:59.556Z,99191.63
2023-01-09T22:46:26.995Z,99187.63
2023-01-09T22:48:54.136Z,99191.06
2023-01-09T22:51:21.820Z,99193.53
2023-01-09T22:53:49.921Z,99188.88
2023-01-09T22:56:19.394Z,99195.06
2023-01-09T22:58:51.156Z,99192.87
2023-01-09T23:01:19.265Z,99188.59
2023-01-09T23:03:47.043Z,99191.28
2023-01-09T23:06:22.179Z,99192.94
2023-01-09T23:08:50.907Z,99188.69
2023-01-09T23:11:42.638Z,99185.69
2023-01-09T23:14:10.830Z,99181.22
2023-01-09T23:16:38.043Z,99174.12
2023-01-09T23:19:19.187Z,99178.97
2023-01-09T23:21:46.751Z,99181.28
2023-01-09T23:24:16.197Z,99173.75
2023-01-09T23:26:43.846Z,99172.91
2023-01-09T23:29:11.979Z,99179.56
2023-01-09T23:31:39.197Z,99169.78
2023-01-09T23:34:08.194Z,99177.00
2023-01-09T23:36:35.951Z,99179.06
2023-01-09T23:39:04.230Z,99171.44
2023-01-09T23:42:03.711Z,99177.87
2023-01-09T23:44:31.083Z,99166.28
2023-01-09T23:46:58.198Z,99170.00
2023-01-09T23:49:25.300Z,99175.22
2023-01-09T23:51:52.683Z,99174.38
2023-01-09T23:54:20.457Z,99177.59
2023-01-09T23:56:47.544Z,99186.06
2023-01-09T23:59:16.865Z,99187.66
